createdAt,value
2023-01-13T00:00:41.765Z,73
2023-01-13T00:01:48.836Z,83
2023-01-13T00:02:55.901Z,82
2023-01-13T00:04:03.224Z,71
2023-01-13T00:05:10.340Z,69
2023-01-13T00:06:17.385Z,80
2023-01-13T00:07:24.513Z,82
2023-01-13T00:08:31.632Z,67
2023-01-13T00:09:38.791Z,64
2023-01-13T00:10:45.940Z,67
2023-01-13T00:11:53.103Z,65
2023-01-13T00:13:00.172Z,50
2023-01-13T00:14:07.250Z,63
2023-01-13T00:15:14.391Z,70
2023-01-13T00:16:21.605Z,51
2023-01-13T00:17:28.837Z,50
2023-01-13T00:18:35.814Z,74
2023-01-13T00:19:42.917Z,52
2023-01-13T00:20:49.578Z,41
2023-01-13T00:22:06.962Z,47
2023-01-13T00:23:14.141Z,53
2023-01-13T00:24:21.141Z,64
2023-01-13T00:25:28.297Z,62
2023-01-13T00:26:35.381Z,62
2023-01-13T00:27:42.550Z,70
2023-01-13T00:28:49.697Z,51
2023-01-13T00:30:00.168Z,49
2023-01-13T00:31:07.151Z,49
2023-01-13T00:32:21.845Z,47
2023-01-13T00:33:28.986Z,71
2023-01-13T00:34:36.105Z,65
2023-01-13T00:35:43.221Z,71
2023-01-13T00:36:50.269Z,51
2023-01-13T00:37:57.416Z,46
2023-01-13T00:39:04.580Z,66
2023-01-13T00:40:11.772Z,66
2023-01-13T00:41:18.970Z,66
2023-01-13T00:42:26.118Z,55
2023-01-13T00:43:38.211Z,50
2023-01-13T00:44:45.337Z,59
2023-01-13T00:45:52.360Z,57
2023-01-13T00:46:59.570Z,54
2023-01-13T00:48:06.196Z,57
2023-01-13T00:49:13.392Z,55
2023-01-13T00:50:20.428Z,57
2023-01-13T00:51:27.526Z,58
2023-01-13T00:52:34.672Z,44
2023-01-13T00:53:41.698Z,39
2023-01-13T00:54:48.389Z,54
2023-01-13T00:55:55.513Z,37
2023-01-13T00:57:05.224Z,35
2023-01-13T00:58:12.295Z,38
2023-01-13T00:59:19.344Z,39
2023-01-13T01:00:26.472Z,44
2023-01-13T01:01:33.647Z,48
2023-01-13T01:02:40.819Z,48
2023-01-13T01:03:47.904Z,25
2023-01-13T01:04:54.985Z,29
2023-01-13T01:06:02.037Z,26
2023-01-13T01:07:12.223Z,53
2023-01-13T01:08:19.341Z,34
2023-01-13T01:09:26.472Z,43
2023-01-13T01:10:33.735Z,48
2023-01-13T01:11:40.676Z,41
2023-01-13T01:12:48.692Z,47
2023-01-13T01:13:55.963Z,40
2023-01-13T01:15:02.983Z,34
2023-01-13T01:16:10.258Z,27
2023-01-13T01:17:17.398Z,36
2023-01-13T01:18:24.608Z,50
2023-01-13T01:19:31.471Z,31
2023-01-13T01:20:38.636Z,39
2023-01-13T01:21:45.806Z,35
2023-01-13T01:22:52.914Z,48
2023-01-13T01:24:00.048Z,30
2023-01-13T01:25:07.251Z,29
2023-01-13T01:26:14.284Z,44
2023-01-13T01:27:21.413Z,42
2023-01-13T01:28:28.573Z,52
2023-01-13T01:29:35.640Z,32
2023-01-13T01:30:42.783Z,51
2023-01-13T01:31:49.901Z,42
2023-01-13T01:32:57.009Z,31
2023-01-13T01:34:04.155Z,40
2023-01-13T01:35:11.290Z,44
2023-01-13T01:36:18.117Z,29
2023-01-13T01:37:25.152Z,29
2023-01-13T01:38:32.121Z,25
2023-01-13T01:39:39.237Z,40
2023-01-13T01:40:45.896Z,30
2023-01-13T01:41:52.536Z,27
2023-01-13T01:43:04.737Z,29
2023-01-13T01:44:20.015Z,42
2023-01-13T01:45:37.270Z,25
2023-01-13T01:46:44.531Z,25
2023-01-13T01:47:51.560Z,41
2023-01-13T01:48:58.598Z,52
2023-01-13T01:50:05.779Z,37
2023-01-13T01:51:12.952Z,47
2023-01-13T01:52:20.002Z,32
2023-01-13T01:53:29.669Z,25
2023-01-13T01:54:36.789Z,32
2023-01-13T01:55:46.357Z,40
2023-01-13T01:56:53.643Z,31
2023-01-13T01:58:00.651Z,49
2023-01-13T01:59:13.093Z,34
2023-01-13T02:00:20.047Z,42
2023-01-13T02:01:27.273Z,32
2023-01-13T02:02:34.304Z,29
2023-01-13T02:03:41.295Z,25
2023-01-13T02:04:48.526Z,26
2023-01-13T02:05:55.628Z,27
2023-01-13T02:07:02.736Z,34
2023-01-13T02:08:09.824Z,32
2023-01-13T02:09:17.041Z,26
2023-01-13T02:10:24.080Z,31
2023-01-13T02:11:30.793Z,37
2023-01-13T02:12:42.968Z,37
2023-01-13T02:13:50.246Z,34
2023-01-13T02:14:57.258Z,45
2023-01-13T02:16:12.593Z,33
2023-01-13T02:17:19.749Z,33
2023-01-13T02:18:29.755Z,29
2023-01-13T02:19:41.964Z,35
2023-01-13T02:20:54.215Z,38
2023-01-13T02:22:11.589Z,30
2023-01-13T02:23:26.352Z,38
2023-01-13T02:24:48.673Z,33
2023-01-13T02:25:58.899Z,25
2023-01-13T02:27:16.263Z,36
2023-01-13T02:28:28.350Z,31
2023-01-13T02:29:40.538Z,25
2023-01-13T02:30:55.324Z,29
2023-01-13T02:32:07.597Z,29
2023-01-13T02:33:17.736Z,29
2023-01-13T02:34:32.366Z,32
2023-01-13T02:35:42.117Z,37
2023-01-13T02:36:54.850Z,32
2023-01-13T02:38:01.476Z,35
2023-01-13T02:39:08.585Z,25
2023-01-13T02:40:18.806Z,26
2023-01-13T02:41:30.954Z,35
2023-01-13T02:42:48.333Z,31
2023-01-13T02:44:03.552Z,37
2023-01-13T02:45:10.747Z,30
2023-01-13T02:46:20.416Z,25
2023-01-13T02:47:27.513Z,29
2023-01-13T02:48:34.529Z,32
2023-01-13T02:49:41.644Z,32
2023-01-13T02:50:48.893Z,45
2023-01-13T02:51:58.515Z,33
2023-01-13T02:53:10.745Z,35
2023-01-13T02:54:25.556Z,33
2023-01-13T02:55:32.729Z,33
2023-01-13T02:56:39.712Z,30
2023-01-13T02:57:46.885Z,31
2023-01-13T02:58:54.052Z,34
2023-01-13T03:00:01.180Z,33
2023-01-13T03:01:08.565Z,36
2023-01-13T03:02:15.688Z,27
2023-01-13T03:03:22.495Z,39
2023-01-13T03:04:29.562Z,32
2023-01-13T03:05:47.090Z,49
2023-01-13T03:06:54.164Z,32
2023-01-13T03:08:06.374Z,33
2023-01-13T03:09:18.666Z,52
2023-01-13T03:10:30.705Z,38
2023-01-13T03:11:45.513Z,54
2023-01-13T03:12:55.668Z,35
2023-01-13T03:14:10.926Z,30
2023-01-13T03:15:23.127Z,51
2023-01-13T03:16:37.925Z,37
2023-01-13T03:17:53.130Z,35
2023-01-13T03:19:08.415Z,36
2023-01-13T03:20:18.147Z,35
2023-01-13T03:21:25.258Z,25
2023-01-13T03:22:32.348Z,27
2023-01-13T03:23:44.537Z,37
2023-01-13T03:24:54.349Z,34
2023-01-13T03:26:01.369Z,40
2023-01-13T03:27:16.142Z,30
2023-01-13T03:28:33.399Z,35
2023-01-13T03:29:40.574Z,34
2023-01-13T03:30:50.744Z,32
2023-01-13T03:31:58.001Z,32
2023-01-13T03:33:04.885Z,38
2023-01-13T03:34:19.729Z,36
2023-01-13T03:35:26.928Z,31
2023-01-13T03:36:40.094Z,38
2023-01-13T03:37:47.049Z,40
2023-01-13T03:38:54.162Z,40
2023-01-13T03:40:01.388Z,28
2023-01-13T03:41:11.514Z,36
2023-01-13T03:42:21.153Z,31
2023-01-13T03:43:27.834Z,26
2023-01-13T03:44:46.131Z,29
2023-01-13T03:45:53.360Z,25
2023-01-13T03:47:00.349Z,31
2023-01-13T03:48:07.438Z,32
2023-01-13T03:49:14.573Z,51
2023-01-13T03:50:21.363Z,33
2023-01-13T03:51:31.376Z,29
2023-01-13T03:52:38.596Z,27
2023-01-13T03:53:48.218Z,31
2023-01-13T03:54:55.303Z,33
2023-01-13T03:56:02.482Z,29
2023-01-13T03:57:09.666Z,35
2023-01-13T03:58:16.885Z,35
2023-01-13T03:59:33.970Z,25
2023-01-13T04:00:41.106Z,33
2023-01-13T04:01:48.374Z,31
2023-01-13T04:02:55.341Z,27
2023-01-13T04:04:05.148Z,30
2023-01-13T04:05:12.228Z,29
2023-01-13T04:06:19.319Z,25
2023-01-13T04:07:29.084Z,27
2023-01-13T04:08:41.325Z,25
2023-01-13T04:09:48.367Z,28
2023-01-13T04:10:55.544Z,35
2023-01-13T04:12:07.860Z,35
2023-01-13T04:13:14.926Z,30
2023-01-13T04:14:21.932Z,34
2023-01-13T04:15:29.202Z,32
2023-01-13T04:16:44.429Z,30
2023-01-13T04:17:51.488Z,29
2023-01-13T04:18:58.613Z,27
2023-01-13T04:20:05.807Z,28
2023-01-13T04:21:12.979Z,28
2023-01-13T04:22:20.085Z,26
2023-01-13T04:23:27.241Z,29
2023-01-13T04:24:34.249Z,27
2023-01-13T04:25:41.454Z,32
2023-01-13T04:26:48.593Z,33
2023-01-13T04:27:55.726Z,29
2023-01-13T04:29:02.893Z,37
2023-01-13T04:30:09.986Z,33
2023-01-13T04:31:17.190Z,45
2023-01-13T04:32:24.215Z,25
2023-01-13T04:33:31.294Z,27
2023-01-13T04:34:38.490Z,27
2023-01-13T04:35:45.712Z,38
2023-01-13T04:36:52.619Z,30
2023-01-13T04:37:59.765Z,30
2023-01-13T04:39:09.458Z,49
2023-01-13T04:40:16.609Z,34
2023-01-13T04:41:23.831Z,31
2023-01-13T04:42:30.888Z,25
2023-01-13T04:43:37.893Z,28
2023-01-13T04:44:45.073Z,25
2023-01-13T04:45:52.117Z,41
2023-01-13T04:46:59.310Z,39
2023-01-13T04:48:06.497Z,26
2023-01-13T04:49:13.624Z,33
2023-01-13T04:50:20.680Z,34
2023-01-13T04:51:27.745Z,37
2023-01-13T04:52:34.823Z,33
2023-01-13T04:53:42.160Z,40
2023-01-13T04:54:49.169Z,35
2023-01-13T04:55:56.166Z,25
2023-01-13T04:57:03.351Z,30
2023-01-13T04:58:10.493Z,29
2023-01-13T04:59:17.589Z,37
2023-01-13T05:00:24.850Z,36
2023-01-13T05:01:32.020Z,25
2023-01-13T05:02:38.940Z,35
2023-01-13T05:03:46.095Z,33
2023-01-13T05:04:53.349Z,40
2023-01-13T05:06:00.387Z,35
2023-01-13T05:07:07.549Z,25
2023-01-13T05:08:14.571Z,38
2023-01-13T05:09:21.788Z,36
2023-01-13T05:10:28.895Z,29
2023-01-13T05:11:36.099Z,28
2023-01-13T05:12:48.166Z,31
2023-01-13T05:14:00.394Z,33
2023-01-13T05:15:12.642Z,33
2023-01-13T05:16:24.841Z,40
2023-01-13T05:17:36.934Z,45
2023-01-13T05:18:44.253Z,48
2023-01-13T05:19:51.343Z,35
2023-01-13T05:20:58.278Z,26
2023-01-13T05:22:05.346Z,32
2023-01-13T05:23:17.257Z,35
2023-01-13T05:24:29.464Z,29
2023-01-13T05:25:44.048Z,27
2023-01-13T05:26:48.722Z,33
2023-01-13T05:27:55.757Z,36
2023-01-13T05:29:02.958Z,33
2023-01-13T05:30:09.634Z,38
2023-01-13T05:31:16.730Z,29
2023-01-13T05:32:23.906Z,40
2023-01-13T05:33:30.915Z,28
2023-01-13T05:34:38.062Z,33
2023-01-13T05:35:45.066Z,31
2023-01-13T05:36:52.237Z,35
2023-01-13T05:37:59.401Z,28
2023-01-13T05:39:06.745Z,35
2023-01-13T05:40:13.649Z,37
2023-01-13T05:41:25.916Z,37
2023-01-13T05:42:38.037Z,27
2023-01-13T05:43:50.134Z,27
2023-01-13T05:44:57.386Z,44
2023-01-13T05:46:04.715Z,43
2023-01-13T05:47:11.568Z,33
2023-01-13T05:48:18.698Z,42
2023-01-13T05:49:25.818Z,28
2023-01-13T05:50:32.900Z,31
2023-01-13T05:51:40.058Z,31
2023-01-13T05:52:47.118Z,36
2023-01-13T05:53:54.228Z,32
2023-01-13T05:55:01.339Z,28
2023-01-13T05:56:08.540Z,37
2023-01-13T05:57:15.629Z,31
2023-01-13T05:58:22.385Z,32
2023-01-13T05:59:29.553Z,30
2023-01-13T06:00:36.489Z,33
2023-01-13T06:01:43.651Z,36
2023-01-13T06:02:50.926Z,31
2023-01-13T06:03:57.918Z,29
2023-01-13T06:05:05.140Z,28
2023-01-13T06:06:12.232Z,32
2023-01-13T06:07:19.298Z,32
2023-01-13T06:08:25.891Z,37
2023-01-13T06:09:33.112Z,40
2023-01-13T06:10:40.193Z,39
2023-01-13T06:11:47.351Z,26
2023-01-13T06:12:54.422Z,32
2023-01-13T06:14:01.529Z,35
2023-01-13T06:15:08.722Z,32
2023-01-13T06:16:15.835Z,41
2023-01-13T06:17:22.992Z,37
2023-01-13T06:18:30.089Z,40
2023-01-13T06:19:37.146Z,39
2023-01-13T06:20:44.297Z,30
2023-01-13T06:21:51.325Z,38
2023-01-13T06:22:58.842Z,40
2023-01-13T06:24:05.908Z,28
2023-01-13T06:25:12.817Z,42
2023-01-13T06:26:25.237Z,38
2023-01-13T06:27:32.086Z,38
2023-01-13T06:28:39.199Z,34
2023-01-13T06:29:46.373Z,35
2023-01-13T06:30:53.450Z,39
2023-01-13T06:32:00.692Z,35
2023-01-13T06:33:07.750Z,34
2023-01-13T06:34:15.878Z,38
2023-01-13T06:35:23.005Z,29
2023-01-13T06:36:30.103Z,37
2023-01-13T06:37:37.137Z,37
2023-01-13T06:38:43.865Z,41
2023-01-13T06:39:51.069Z,28
2023-01-13T06:40:58.101Z,40
2023-01-13T06:42:05.266Z,30
2023-01-13T06:43:17.868Z,29
2023-01-13T06:44:24.594Z,39
2023-01-13T06:45:31.616Z,43
2023-01-13T06:46:38.781Z,35
2023-01-13T06:47:46.063Z,39
2023-01-13T06:48:53.110Z,42
2023-01-13T06:50:00.145Z,45
2023-01-13T06:51:07.242Z,36
2023-01-13T06:52:14.381Z,38
2023-01-13T06:53:21.566Z,45
2023-01-13T06:54:28.697Z,42
2023-01-13T06:55:35.740Z,39
2023-01-13T06:56:42.748Z,38
2023-01-13T06:57:49.925Z,38
2023-01-13T06:59:00.297Z,41
2023-01-13T07:00:07.341Z,33
2023-01-13T07:01:14.831Z,37
2023-01-13T07:02:21.845Z,38
2023-01-13T07:03:28.680Z,36
2023-01-13T07:04:35.848Z,34
2023-01-13T07:05:42.955Z,37
2023-01-13T07:06:55.134Z,31
2023-01-13T07:08:02.361Z,32
2023-01-13T07:09:09.377Z,34
2023-01-13T07:10:16.634Z,41
2023-01-13T07:11:23.682Z,46
2023-01-13T07:12:30.722Z,35
2023-01-13T07:13:37.841Z,33
2023-01-13T07:14:50.113Z,34
2023-01-13T07:16:02.416Z,40
2023-01-13T07:17:09.368Z,33
2023-01-13T07:18:16.533Z,31
2023-01-13T07:19:23.773Z,39
2023-01-13T07:20:30.874Z,32
2023-01-13T07:21:38.017Z,34
2023-01-13T07:22:45.161Z,36
2023-01-13T07:23:52.223Z,40
2023-01-13T07:24:59.273Z,34
2023-01-13T07:26:06.450Z,36
2023-01-13T07:27:13.546Z,32
2023-01-13T07:28:20.746Z,37
2023-01-13T07:29:27.809Z,37
2023-01-13T07:30:34.890Z,38
2023-01-13T07:31:42.068Z,36
2023-01-13T07:32:49.146Z,38
2023-01-13T07:33:56.284Z,33
2023-01-13T07:35:03.472Z,37
2023-01-13T07:36:10.984Z,33
2023-01-13T07:37:17.775Z,37
2023-01-13T07:38:24.863Z,31
2023-01-13T07:39:31.938Z,35
2023-01-13T07:40:39.037Z,35
2023-01-13T07:41:46.133Z,34
2023-01-13T07:42:58.351Z,42
2023-01-13T07:44:10.545Z,37
2023-01-13T07:45:17.764Z,41
2023-01-13T07:46:24.877Z,40
2023-01-13T07:47:31.864Z,36
2023-01-13T07:48:38.985Z,36
2023-01-13T07:49:46.135Z,44
2023-01-13T07:50:53.252Z,44
2023-01-13T07:52:00.461Z,43
2023-01-13T07:53:07.607Z,54
2023-01-13T07:54:14.632Z,45
2023-01-13T07:55:21.323Z,50
2023-01-13T07:56:28.717Z,47
2023-01-13T07:57:36.129Z,46
2023-01-13T07:58:43.133Z,47
2023-01-13T07:59:50.224Z,55
2023-01-13T08:00:57.069Z,55
2023-01-13T08:02:04.357Z,58
2023-01-13T08:03:11.193Z,62
2023-01-13T08:04:18.383Z,60
2023-01-13T08:05:25.642Z,65
2023-01-13T08:06:33.000Z,68
2023-01-13T08:07:40.084Z,75
2023-01-13T08:08:47.233Z,72
2023-01-13T08:09:54.371Z,75
2023-01-13T08:11:01.597Z,79
2023-01-13T08:12:08.473Z,81
2023-01-13T08:13:20.415Z,85
2023-01-13T08:14:27.410Z,90
2023-01-13T08:15:34.471Z,99
2023-01-13T08:16:41.720Z,95
2023-01-13T08:17:48.764Z,92
2023-01-13T08:18:55.555Z,87
2023-01-13T08:20:02.624Z,85
2023-01-13T08:21:09.700Z,93
2023-01-13T08:22:16.783Z,88
2023-01-13T08:23:23.880Z,85
2023-01-13T08:24:30.682Z,91
2023-01-13T08:25:37.722Z,90
2023-01-13T08:26:44.753Z,86
2023-01-13T08:27:51.902Z,89
2023-01-13T08:28:59.024Z,92
2023-01-13T08:30:06.172Z,98
2023-01-13T08:31:13.437Z,87
2023-01-13T08:32:20.457Z,84
2023-01-13T08:33:27.620Z,82
2023-01-13T08:34:34.640Z,86
2023-01-13T08:35:41.749Z,86
2023-01-13T08:36:48.859Z,91
2023-01-13T08:37:56.164Z,82
2023-01-13T08:39:03.104Z,82
2023-01-13T08:40:10.262Z,79
2023-01-13T08:41:17.503Z,78
2023-01-13T08:42:24.493Z,82
2023-01-13T08:43:31.613Z,82
2023-01-13T08:44:38.855Z,83
2023-01-13T08:45:45.885Z,80
2023-01-13T08:47:01.154Z,80
2023-01-13T08:48:08.348Z,72
2023-01-13T08:49:16.393Z,80
2023-01-13T08:50:23.629Z,79
2023-01-13T08:51:30.677Z,69
2023-01-13T08:52:37.666Z,71
2023-01-13T08:53:44.921Z,79
2023-01-13T08:54:52.282Z,75
2023-01-13T08:55:59.185Z,73
2023-01-13T08:57:06.357Z,70
2023-01-13T08:58:15.978Z,71
2023-01-13T08:59:20.592Z,68
2023-01-13T09:00:27.693Z,71
2023-01-13T09:01:34.925Z,69
2023-01-13T09:02:41.956Z,72
2023-01-13T09:03:48.941Z,68
2023-01-13T09:04:56.070Z,64
2023-01-13T09:06:02.641Z,68
2023-01-13T09:07:09.862Z,67
2023-01-13T09:08:17.045Z,66
2023-01-13T09:09:24.123Z,63
2023-01-13T09:10:31.113Z,64
2023-01-13T09:11:38.269Z,66
2023-01-13T09:12:50.560Z,54
2023-01-13T09:14:03.513Z,54
2023-01-13T09:15:09.866Z,44
2023-01-13T09:16:17.018Z,48
2023-01-13T09:17:24.162Z,51
2023-01-13T09:18:31.298Z,54
2023-01-13T09:19:38.357Z,48
2023-01-13T09:20:45.626Z,46
2023-01-13T09:21:52.528Z,38
2023-01-13T09:22:59.664Z,48
2023-01-13T09:24:06.359Z,50
2023-01-13T09:25:13.564Z,43
2023-01-13T09:26:20.593Z,53
2023-01-13T09:27:27.804Z,37
2023-01-13T09:28:34.845Z,53
2023-01-13T09:29:41.896Z,46
2023-01-13T09:30:49.110Z,40
2023-01-13T09:31:56.207Z,36
2023-01-13T09:33:03.278Z,29
2023-01-13T09:34:15.621Z,35
2023-01-13T09:35:27.833Z,37
2023-01-13T09:36:34.963Z,30
2023-01-13T09:37:42.097Z,37
2023-01-13T09:38:49.105Z,28
2023-01-13T09:39:57.394Z,33
2023-01-13T09:41:04.390Z,34
2023-01-13T09:42:11.125Z,29
2023-01-13T09:43:31.477Z,45
2023-01-13T09:44:43.550Z,45
2023-01-13T09:45:50.708Z,41
2023-01-13T09:46:57.826Z,34
2023-01-13T09:48:05.043Z,32
2023-01-13T09:49:17.054Z,28
2023-01-13T09:50:26.816Z,30
2023-01-13T09:51:44.129Z,29
2023-01-13T09:52:51.169Z,30
2023-01-13T09:53:58.362Z,31
2023-01-13T09:55:10.559Z,25
2023-01-13T09:56:22.661Z,28
2023-01-13T09:57:29.345Z,25
2023-01-13T09:58:36.498Z,28
2023-01-13T09:59:43.647Z,30
2023-01-13T10:00:50.679Z,29
2023-01-13T10:02:05.458Z,38
2023-01-13T10:03:22.858Z,40
2023-01-13T10:04:29.859Z,33
2023-01-13T10:05:36.954Z,35
2023-01-13T10:06:46.663Z,39
2023-01-13T10:07:53.690Z,33
2023-01-13T10:09:03.373Z,27
2023-01-13T10:10:10.562Z,25
2023-01-13T10:11:19.721Z,30
2023-01-13T10:12:31.983Z,30
2023-01-13T10:13:44.527Z,33
2023-01-13T10:14:51.893Z,29
2023-01-13T10:16:00.780Z,25
2023-01-13T10:17:09.086Z,28
2023-01-13T10:18:21.226Z,25
2023-01-13T10:19:35.986Z,31
2023-01-13T10:20:48.130Z,26
2023-01-13T10:22:03.318Z,30
2023-01-13T10:23:13.133Z,26
2023-01-13T10:24:25.348Z,31
2023-01-13T10:25:42.608Z,33
2023-01-13T10:26:59.904Z,41
2023-01-13T10:28:06.979Z,36
2023-01-13T10:29:19.203Z,28
2023-01-13T10:30:28.878Z,28
2023-01-13T10:31:41.972Z,32
2023-01-13T10:32:49.146Z,31
2023-01-13T10:33:56.279Z,33
2023-01-13T10:35:03.447Z,31
2023-01-13T10:36:10.705Z,41
2023-01-13T10:37:20.302Z,33
2023-01-13T10:38:29.961Z,27
2023-01-13T10:39:45.022Z,25
2023-01-13T10:40:52.106Z,41
2023-01-13T10:42:04.908Z,37
2023-01-13T10:43:12.017Z,28
2023-01-13T10:44:19.211Z,33
2023-01-13T10:45:26.484Z,39
2023-01-13T10:46:33.403Z,33
2023-01-13T10:47:40.386Z,32
2023-01-13T10:48:47.583Z,38
2023-01-13T10:49:57.773Z,42
2023-01-13T10:51:10.021Z,32
2023-01-13T10:52:24.901Z,36
2023-01-13T10:53:31.990Z,42
2023-01-13T10:54:38.945Z,37
2023-01-13T10:55:46.033Z,42
2023-01-13T10:57:01.257Z,35
2023-01-13T10:58:16.084Z,35
2023-01-13T10:59:23.449Z,39
2023-01-13T11:00:32.894Z,42
2023-01-13T11:01:40.350Z,28
2023-01-13T11:02:47.128Z,38
2023-01-13T11:03:54.296Z,45
2023-01-13T11:05:01.418Z,38
2023-01-13T11:06:13.545Z,31
2023-01-13T11:07:28.277Z,34
2023-01-13T11:08:43.062Z,36
2023-01-13T11:09:50.219Z,40
2023-01-13T11:11:04.938Z,39
2023-01-13T11:12:11.585Z,35
2023-01-13T11:13:29.069Z,41
2023-01-13T11:14:35.984Z,47
2023-01-13T11:15:45.767Z,42
2023-01-13T11:17:03.049Z,53
2023-01-13T11:18:10.244Z,50
2023-01-13T11:19:17.425Z,45
2023-01-13T11:20:24.508Z,50
2023-01-13T11:21:34.100Z,49
2023-01-13T11:22:51.406Z,51
2023-01-13T11:23:58.500Z,41
2023-01-13T11:25:08.284Z,48
2023-01-13T11:26:15.429Z,47
2023-01-13T11:27:25.011Z,43
2023-01-13T11:28:42.252Z,51
2023-01-13T11:29:54.504Z,51
2023-01-13T11:31:11.835Z,47
2023-01-13T11:32:18.950Z,51
2023-01-13T11:33:25.998Z,48
2023-01-13T11:34:43.311Z,49
2023-01-13T11:35:50.462Z,54
2023-01-13T11:37:02.615Z,54
2023-01-13T11:38:17.909Z,49
2023-01-13T11:39:30.166Z,51
2023-01-13T11:40:42.347Z,53
2023-01-13T11:41:49.631Z,42
2023-01-13T11:42:59.755Z,43
2023-01-13T11:44:14.428Z,50
2023-01-13T11:45:26.683Z,45
2023-01-13T11:46:36.320Z,50
2023-01-13T11:47:43.440Z,47
2023-01-13T11:48:50.600Z,48
2023-01-13T11:49:57.749Z,47
2023-01-13T11:51:04.927Z,46
2023-01-13T11:52:17.225Z,36
2023-01-13T11:53:27.304Z,49
2023-01-13T11:54:44.543Z,47
2023-01-13T11:55:56.869Z,45
2023-01-13T11:57:09.061Z,45
2023-01-13T11:58:24.281Z,39
2023-01-13T11:59:39.597Z,28
2023-01-13T12:00:51.777Z,46
2023-01-13T12:02:09.246Z,43
2023-01-13T12:03:21.434Z,46
2023-01-13T12:04:34.045Z,46
2023-01-13T12:05:51.239Z,39
2023-01-13T12:07:03.493Z,41
2023-01-13T12:08:16.298Z,42
2023-01-13T12:09:28.511Z,40
2023-01-13T12:10:43.692Z,47
2023-01-13T12:11:59.149Z,43
2023-01-13T12:13:16.687Z,40
2023-01-13T12:14:28.926Z,45
2023-01-13T12:15:44.153Z,29
2023-01-13T12:17:01.521Z,41
2023-01-13T12:18:08.166Z,39
2023-01-13T12:19:25.483Z,45
2023-01-13T12:20:35.576Z,45
2023-01-13T12:21:52.802Z,41
2023-01-13T12:23:03.025Z,47
2023-01-13T12:24:10.056Z,45
2023-01-13T12:25:17.158Z,42
2023-01-13T12:26:24.334Z,51
2023-01-13T12:27:31.632Z,44
2023-01-13T12:28:41.224Z,48
2023-01-13T12:29:58.338Z,36
2023-01-13T12:31:05.517Z,47
2023-01-13T12:32:12.751Z,45
2023-01-13T12:33:22.303Z,47
2023-01-13T12:34:39.446Z,46
2023-01-13T12:35:56.784Z,38
2023-01-13T12:37:14.205Z,48
2023-01-13T12:38:26.576Z,48
2023-01-13T12:39:38.971Z,47
2023-01-13T12:40:53.681Z,52
2023-01-13T12:42:11.073Z,55
2023-01-13T12:43:28.343Z,38
2023-01-13T12:44:40.493Z,49
2023-01-13T12:45:57.831Z,49
2023-01-13T12:47:15.247Z,55
2023-01-13T12:48:32.563Z,53
2023-01-13T12:49:49.796Z,55
2023-01-13T12:50:57.049Z,50
2023-01-13T12:52:07.180Z,47
2023-01-13T12:53:17.432Z,52
2023-01-13T12:54:32.606Z,54
2023-01-13T12:55:44.774Z,51
2023-01-13T12:56:54.900Z,57
2023-01-13T12:58:02.080Z,62
2023-01-13T12:59:09.170Z,65
2023-01-13T13:00:21.432Z,65
2023-01-13T13:01:28.563Z,59
2023-01-13T13:02:38.732Z,56
2023-01-13T13:03:45.914Z,75
2023-01-13T13:05:03.596Z,68
2023-01-13T13:06:18.895Z,74
2023-01-13T13:07:26.032Z,68
2023-01-13T13:08:41.304Z,72
2023-01-13T13:09:53.512Z,65
2023-01-13T13:11:03.588Z,64
2023-01-13T13:12:15.878Z,73
2023-01-13T13:13:36.153Z,71
2023-01-13T13:14:43.361Z,67
2023-01-13T13:15:50.507Z,67
2023-01-13T13:16:57.676Z,65
2023-01-13T13:18:04.953Z,66
2023-01-13T13:19:22.550Z,61
2023-01-13T13:20:29.801Z,66
2023-01-13T13:21:41.863Z,71
2023-01-13T13:22:59.182Z,72
2023-01-13T13:24:06.361Z,65
2023-01-13T13:25:13.438Z,71
2023-01-13T13:26:23.110Z,75
2023-01-13T13:27:35.213Z,67
2023-01-13T13:28:42.341Z,68
2023-01-13T13:29:52.578Z,67
2023-01-13T13:31:05.770Z,72
2023-01-13T13:32:18.018Z,62
2023-01-13T13:33:30.158Z,65
2023-01-13T13:34:37.231Z,74
2023-01-13T13:35:49.408Z,81
2023-01-13T13:36:59.656Z,73
2023-01-13T13:38:09.356Z,74
2023-01-13T13:39:31.795Z,75
2023-01-13T13:40:43.994Z,78
2023-01-13T13:41:56.261Z,69
2023-01-13T13:43:08.455Z,72
2023-01-13T13:44:20.630Z,73
2023-01-13T13:45:41.031Z,71
2023-01-13T13:46:53.188Z,78
2023-01-13T13:48:00.212Z,77
2023-01-13T13:49:17.591Z,70
2023-01-13T13:50:24.728Z,76
2023-01-13T13:51:31.829Z,82
2023-01-13T13:52:38.924Z,80
2023-01-13T13:53:49.079Z,83
2023-01-13T13:54:56.315Z,80
2023-01-13T13:56:03.493Z,77
2023-01-13T13:57:10.448Z,70
2023-01-13T13:58:23.275Z,75
2023-01-13T13:59:30.415Z,82
2023-01-13T14:00:37.392Z,76
2023-01-13T14:01:44.760Z,78
2023-01-13T14:02:51.804Z,80
2023-01-13T14:04:01.421Z,78
2023-01-13T14:05:08.559Z,79
2023-01-13T14:06:18.801Z,82
2023-01-13T14:07:25.910Z,80
2023-01-13T14:08:32.903Z,83
2023-01-13T14:09:40.034Z,78
2023-01-13T14:10:49.735Z,83
2023-01-13T14:11:56.852Z,90
2023-01-13T14:13:04.050Z,89
2023-01-13T14:14:21.959Z,90
2023-01-13T14:15:29.013Z,92
2023-01-13T14:16:39.123Z,83
2023-01-13T14:17:46.179Z,90
2023-01-13T14:18:53.372Z,91
2023-01-13T14:20:00.442Z,85
2023-01-13T14:21:07.670Z,86
2023-01-13T14:22:19.908Z,97
2023-01-13T14:23:27.106Z,94
2023-01-13T14:24:34.042Z,105
2023-01-13T14:25:41.101Z,89
2023-01-13T14:26:50.857Z,95
2023-01-13T14:27:57.887Z,91
2023-01-13T14:29:15.309Z,92
2023-01-13T14:30:28.440Z,98
2023-01-13T14:31:35.495Z,99
2023-01-13T14:32:42.735Z,92
2023-01-13T14:33:49.832Z,95
2023-01-13T14:34:59.536Z,105
2023-01-13T14:36:06.541Z,100
2023-01-13T14:37:18.809Z,99
2023-01-13T14:38:35.991Z,103
2023-01-13T14:39:43.176Z,100
2023-01-13T14:40:50.496Z,98
2023-01-13T14:41:57.490Z,96
2023-01-13T14:43:04.494Z,92
2023-01-13T14:44:17.873Z,98
2023-01-13T14:45:30.991Z,98
2023-01-13T14:46:38.327Z,105
2023-01-13T14:47:45.371Z,99
2023-01-13T14:48:52.361Z,92
2023-01-13T14:50:04.645Z,104
2023-01-13T14:51:14.342Z,96
2023-01-13T14:52:24.506Z,93
2023-01-13T14:53:31.601Z,98
2023-01-13T14:54:41.766Z,107
2023-01-13T14:55:53.981Z,99
2023-01-13T14:57:01.110Z,105
2023-01-13T14:58:15.859Z,110
2023-01-13T14:59:25.996Z,119
2023-01-13T15:00:38.203Z,117
2023-01-13T15:01:45.340Z,119
2023-01-13T15:02:52.701Z,113
2023-01-13T15:04:02.739Z,114
2023-01-13T15:05:20.452Z,115
2023-01-13T15:06:30.173Z,107
2023-01-13T15:07:37.221Z,113
2023-01-13T15:08:44.342Z,114
2023-01-13T15:09:51.438Z,110
2023-01-13T15:10:58.578Z,108
2023-01-13T15:12:09.441Z,113
2023-01-13T15:13:16.535Z,107
2023-01-13T15:14:29.714Z,105
2023-01-13T15:15:36.840Z,113
2023-01-13T15:16:43.946Z,108
2023-01-13T15:17:50.977Z,108
2023-01-13T15:18:58.165Z,107
2023-01-13T15:20:05.276Z,115
2023-01-13T15:21:12.501Z,115
2023-01-13T15:22:19.748Z,110
2023-01-13T15:23:27.265Z,108
2023-01-13T15:24:34.232Z,106
2023-01-13T15:25:41.423Z,107
2023-01-13T15:26:48.563Z,117
2023-01-13T15:27:55.798Z,116
2023-01-13T15:29:02.816Z,118
2023-01-13T15:30:09.985Z,123
2023-01-13T15:31:20.202Z,109
2023-01-13T15:32:27.304Z,117
2023-01-13T15:33:34.417Z,119
2023-01-13T15:34:41.585Z,121
2023-01-13T15:35:48.763Z,122
2023-01-13T15:36:55.821Z,109
2023-01-13T15:38:02.948Z,117
2023-01-13T15:39:10.039Z,116
2023-01-13T15:40:17.207Z,118
2023-01-13T15:41:27.425Z,112
2023-01-13T15:42:39.556Z,116
2023-01-13T15:43:51.780Z,122
2023-01-13T15:45:02.056Z,117
2023-01-13T15:46:17.307Z,111
2023-01-13T15:47:29.459Z,121
2023-01-13T15:48:36.576Z,117
2023-01-13T15:49:43.780Z,114
2023-01-13T15:50:51.035Z,122
2023-01-13T15:51:58.027Z,119
2023-01-13T15:53:08.208Z,122
2023-01-13T15:54:15.341Z,111
2023-01-13T15:55:22.538Z,116
2023-01-13T15:56:29.771Z,125
2023-01-13T15:57:36.684Z,112
2023-01-13T15:58:43.792Z,117
2023-01-13T15:59:50.995Z,123
2023-01-13T16:00:58.222Z,124
2023-01-13T16:02:05.303Z,111
2023-01-13T16:03:17.526Z,125
2023-01-13T16:04:24.616Z,117
2023-01-13T16:05:31.796Z,118
2023-01-13T16:06:39.474Z,114
2023-01-13T16:07:46.514Z,114
2023-01-13T16:08:53.675Z,118
2023-01-13T16:10:00.789Z,119
2023-01-13T16:11:08.077Z,117
2023-01-13T16:12:15.222Z,119
2023-01-13T16:13:22.776Z,109
2023-01-13T16:14:29.874Z,109
2023-01-13T16:15:37.006Z,115
2023-01-13T16:16:49.205Z,117
2023-01-13T16:17:56.237Z,119
2023-01-13T16:19:03.455Z,117
2023-01-13T16:20:10.664Z,113